sensor_id;sensor_type;location;lat;lon;timestamp;P1;durP1;ratioP1;P2;durP2;ratioP2
41705;SDS011;27385;51.096;17.190;2022-09-11T00:02:23;7.20;;;1.90;;
41705;SDS011;27385;51.096;17.190;2022-09-11T00:04:55;7.30;;;1.60;;
41705;SDS011;27385;51.096;17.190;2022-09-11T00:07:26;4.60;;;1.30;;
41705;SDS011;27385;51.096;17.190;2022-09-11T00:09:57;6.70;;;1.40;;
41705;SDS011;27385;51.096;17.190;2022-09-11T00:12:29;5.70;;;1.50;;
41705;SDS011;27385;51.096;17.190;2022-09-11T00:15:00;6.10;;;1.90;;
41705;SDS011;27385;51.096;17.190;2022-09-11T00:17:31;5.60;;;1.60;;
41705;SDS011;27385;51.096;17.190;2022-09-11T00:20:03;11.30;;;1.80;;
41705;SDS011;27385;51.096;17.190;2022-09-11T00:22:34;4.50;;;1.40;;
41705;SDS011;27385;51.096;17.190;2022-09-11T00:25:07;4.10;;;1.50;;
41705;SDS011;27385;51.096;17.190;2022-09-11T00:27:38;4.70;;;1.70;;
41705;SDS011;27385;51.096;17.190;2022-09-11T00:30:10;8.30;;;1.60;;
41705;SDS011;27385;51.096;17.190;2022-09-11T00:32:42;6.40;;;1.60;;
41705;SDS011;27385;51.096;17.190;2022-09-11T00:35:14;8.20;;;1.60;;
41705;SDS011;27385;51.096;17.190;2022-09-11T00:37:45;3.80;;;1.30;;
41705;SDS011;27385;51.096;17.190;2022-09-11T00:40:16;6.10;;;1.80;;
41705;SDS011;27385;51.096;17.190;2022-09-11T00:42:51;5.70;;;1.40;;
41705;SDS011;27385;51.096;17.190;2022-09-11T00:45:25;6.10;;;1.70;;
41705;SDS011;27385;51.096;17.190;2022-09-11T00:47:56;6.50;;;1.70;;
41705;SDS011;27385;51.096;17.190;2022-09-11T00:50:30;8.60;;;2.00;;
41705;SDS011;27385;51.096;17.190;2022-09-11T00:53:03;11.40;;;1.80;;
41705;SDS011;27385;51.096;17.190;2022-09-11T00:55:36;9.20;;;2.10;;
41705;SDS011;27385;51.096;17.190;2022-09-11T00:58:15;10.10;;;1.90;;
41705;SDS011;27385;51.096;17.190;2022-09-11T01:00:52;6.70;;;1.70;;
41705;SDS011;27385;51.096;17.190;2022-09-11T01:03:25;12.00;;;2.90;;
41705;SDS011;27385;51.096;17.190;2022-09-11T01:06:00;9.80;;;2.30;;
41705;SDS011;27385;51.096;17.190;2022-09-11T01:08:34;9.90;;;2.10;;
41705;SDS011;27385;51.096;17.190;2022-09-11T01:11:15;16.10;;;1.80;;
41705;SDS011;27385;51.096;17.190;2022-09-11T01:13:56;7.20;;;2.20;;
41705;SDS011;27385;51.096;17.190;2022-09-11T01:16:36;8.30;;;1.90;;
41705;SDS011;27385;51.096;17.190;2022-09-11T01:19:16;8.10;;;1.80;;
41705;SDS011;27385;51.096;17.190;2022-09-11T01:22:15;5.80;;;1.60;;
41705;SDS011;27385;51.096;17.190;2022-09-11T01:25:01;5.70;;;1.50;;
41705;SDS011;27385;51.096;17.190;2022-09-11T01:27:47;6.80;;;1.60;;
41705;SDS011;27385;51.096;17.190;2022-09-11T01:30:23;9.60;;;1.80;;
41705;SDS011;27385;51.096;17.190;2022-09-11T01:33:07;5.80;;;1.70;;
41705;SDS011;27385;51.096;17.190;2022-09-11T01:35:54;4.50;;;1.60;;
41705;SDS011;27385;51.096;17.190;2022-09-11T01:38:33;13.30;;;2.70;;
41705;SDS011;27385;51.096;17.190;2022-09-11T01:41:10;8.60;;;2.00;;
41705;SDS011;27385;51.096;17.190;2022-09-11T01:43:46;6.30;;;1.70;;
41705;SDS011;27385;51.096;17.190;2022-09-11T01:46:26;7.80;;;1.80;;
41705;SDS011;27385;51.096;17.190;2022-09-11T01:49:03;8.80;;;2.00;;
41705;SDS011;27385;51.096;17.190;2022-09-11T01:51:38;10.10;;;2.10;;
41705;SDS011;27385;51.096;17.190;2022-09-11T01:54:11;8.20;;;2.20;;
41705;SDS011;27385;51.096;17.190;2022-09-11T01:56:46;9.90;;;3.30;;
41705;SDS011;27385;51.096;17.190;2022-09-11T01:59:22;9.60;;;3.90;;
41705;SDS011;27385;51.096;17.190;2022-09-11T02:01:59;11.20;;;4.50;;
41705;SDS011;27385;51.096;17.190;2022-09-11T02:04:34;18.70;;;4.30;;
41705;SDS011;27385;51.096;17.190;2022-09-11T02:07:09;8.90;;;4.10;;
41705;SDS011;27385;51.096;17.190;2022-09-11T02:09:45;10.80;;;4.60;;
41705;SDS011;27385;51.096;17.190;2022-09-11T02:12:23;12.20;;;4.60;;
41705;SDS011;27385;51.096;17.190;2022-09-11T02:14:58;11.60;;;4.20;;
41705;SDS011;27385;51.096;17.190;2022-09-11T02:17:32;12.60;;;4.50;;
41705;SDS011;27385;51.096;17.190;2022-09-11T02:20:12;10.50;;;4.60;;
41705;SDS011;27385;51.096;17.190;2022-09-11T02:22:44;10.00;;;4.40;;
41705;SDS011;27385;51.096;17.190;2022-09-11T02:25:16;13.90;;;5.20;;
41705;SDS011;27385;51.096;17.190;2022-09-11T02:27:48;11.10;;;4.90;;
41705;SDS011;27385;51.096;17.190;2022-09-11T02:30:21;13.30;;;4.80;;
41705;SDS011;27385;51.096;17.190;2022-09-11T02:32:54;13.20;;;5.30;;
41705;SDS011;27385;51.096;17.190;2022-09-11T02:35:26;12.30;;;4.20;;
41705;SDS011;27385;51.096;17.190;2022-09-11T02:38:07;12.30;;;4.70;;
41705;SDS011;27385;51.096;17.190;2022-09-11T02:40:48;12.50;;;5.40;;
41705;SDS011;27385;51.096;17.190;2022-09-11T02:43:32;13.00;;;5.40;;
41705;SDS011;27385;51.096;17.190;2022-09-11T02:46:21;11.80;;;4.70;;
41705;SDS011;27385;51.096;17.190;2022-09-11T02:49:17;11.80;;;5.10;;
41705;SDS011;27385;51.096;17.190;2022-09-11T02:51:55;11.70;;;4.90;;
41705;SDS011;27385;51.096;17.190;2022-09-11T02:54:44;15.10;;;4.90;;
41705;SDS011;27385;51.096;17.190;2022-09-11T02:57:22;12.30;;;4.80;;
41705;SDS011;27385;51.096;17.190;2022-09-11T02:59:59;12.10;;;4.60;;
41705;SDS011;27385;51.096;17.190;2022-09-11T03:02:34;14.70;;;4.40;;
41705;SDS011;27385;51.096;17.190;2022-09-11T03:05:11;11.00;;;4.90;;
41705;SDS011;27385;51.096;17.190;2022-09-11T03:07:42;10.40;;;4.10;;
41705;SDS011;27385;51.096;17.190;2022-09-11T03:10:13;9.30;;;4.00;;
41705;SDS011;27385;51.096;17.190;2022-09-11T03:12:45;11.40;;;4.30;;
41705;SDS011;27385;51.096;17.190;2022-09-11T03:15:16;10.10;;;4.20;;
41705;SDS011;27385;51.096;17.190;2022-09-11T03:17:47;10.00;;;4.10;;
41705;SDS011;27385;51.096;17.190;2022-09-11T03:20:18;13.50;;;4.80;;
41705;SDS011;27385;51.096;17.190;2022-09-11T03:22:49;11.90;;;3.60;;
41705;SDS011;27385;51.096;17.190;2022-09-11T03:25:20;9.50;;;3.40;;
41705;SDS011;27385;51.096;17.190;2022-09-11T03:27:55;8.80;;;2.80;;
41705;SDS011;27385;51.096;17.190;2022-09-11T03:30:26;10.80;;;3.70;;
41705;SDS011;27385;51.096;17.190;2022-09-11T03:32:57;9.60;;;3.10;;
41705;SDS011;27385;51.096;17.190;2022-09-11T03:35:28;11.50;;;3.70;;
41705;SDS011;27385;51.096;17.190;2022-09-11T03:37:59;11.20;;;2.90;;
41705;SDS011;27385;51.096;17.190;2022-09-11T03:40:31;10.50;;;3.30;;
41705;SDS011;27385;51.096;17.190;2022-09-11T03:43:02;10.90;;;3.30;;
41705;SDS011;27385;51.096;17.190;2022-09-11T03:45:33;10.40;;;3.20;;
41705;SDS011;27385;51.096;17.190;2022-09-11T03:48:04;7.80;;;3.30;;
41705;SDS011;27385;51.096;17.190;2022-09-11T03:50:35;10.30;;;3.20;;
41705;SDS011;27385;51.096;17.190;2022-09-11T03:53:08;15.00;;;3.00;;
41705;SDS011;27385;51.096;17.190;2022-09-11T03:55:39;12.20;;;3.10;;
41705;SDS011;27385;51.096;17.190;2022-09-11T03:58:10;9.50;;;2.50;;
41705;SDS011;27385;51.096;17.190;2022-09-11T04:00:42;8.90;;;3.00;;
41705;SDS011;27385;51.096;17.190;2022-09-11T04:03:14;10.00;;;2.80;;
41705;SDS011;27385;51.096;17.190;2022-09-11T04:05:55;11.10;;;2.70;;
41705;SDS011;27385;51.096;17.190;2022-09-11T04:08:28;9.50;;;3.10;;
41705;SDS011;27385;51.096;17.190;2022-09-11T04:11:01;16.10;;;3.50;;
41705;SDS011;27385;51.096;17.190;2022-09-11T04:13:35;10.80;;;3.60;;
41705;SDS011;27385;51.096;17.190;2022-09-11T04:16:09;12.30;;;3.40;;
41705;SDS011;27385;51.096;17.190;2022-09-11T04:18:42;11.70;;;3.60;;
41705;SDS011;27385;51.096;17.190;2022-09-11T04:21:16;12.40;;;3.10;;
41705;SDS011;27385;51.096;17.190;2022-09-11T04:23:50;9.50;;;3.20;;
41705;SDS011;27385;51.096;17.190;2022-09-11T04:26:23;7.50;;;2.80;;
41705;SDS011;27385;51.096;17.190;2022-09-11T04:28:58;8.20;;;3.20;;
41705;SDS011;27385;51.096;17.190;2022-09-11T04:31:29;9.00;;;2.80;;
41705;SDS011;27385;51.096;17.190;2022-09-11T04:34:02;7.10;;;2.60;;
41705;SDS011;27385;51.096;17.190;2022-09-11T04:36:34;6.80;;;2.00;;
41705;SDS011;27385;51.096;17.190;2022-09-11T04:39:06;13.10;;;2.20;;
41705;SDS011;27385;51.096;17.190;2022-09-11T04:41:37;11.50;;;2.50;;
41705;SDS011;27385;51.096;17.190;2022-09-11T04:44:08;6.40;;;2.20;;
41705;SDS011;27385;51.096;17.190;2022-09-11T04:46:40;8.60;;;2.30;;
41705;SDS011;27385;51.096;17.190;2022-09-11T04:49:12;10.40;;;2.10;;
41705;SDS011;27385;51.096;17.190;2022-09-11T04:51:43;8.40;;;2.50;;
41705;SDS011;27385;51.096;17.190;2022-09-11T04:54:15;7.70;;;1.90;;
41705;SDS011;27385;51.096;17.190;2022-09-11T04:56:48;7.40;;;1.80;;
41705;SDS011;27385;51.096;17.190;2022-09-11T04:59:20;8.40;;;2.30;;
41705;SDS011;27385;51.096;17.190;2022-09-11T05:01:52;9.30;;;2.40;;
41705;SDS011;27385;51.096;17.190;2022-09-11T05:04:23;9.20;;;2.00;;
41705;SDS011;27385;51.096;17.190;2022-09-11T05:06:54;7.40;;;2.10;;
41705;SDS011;27385;51.096;17.190;2022-09-11T05:09:25;5.90;;;1.90;;
41705;SDS011;27385;51.096;17.190;2022-09-11T05:11:57;9.10;;;2.10;;
41705;SDS011;27385;51.096;17.190;2022-09-11T05:14:29;10.60;;;2.00;;
41705;SDS011;27385;51.096;17.190;2022-09-11T05:17:01;7.10;;;2.10;;
41705;SDS011;27385;51.096;17.190;2022-09-11T05:19:32;6.70;;;1.50;;
41705;SDS011;27385;51.096;17.190;2022-09-11T05:22:04;6.60;;;2.20;;
41705;SDS011;27385;51.096;17.190;2022-09-11T05:24:35;8.10;;;2.10;;
41705;SDS011;27385;51.096;17.190;2022-09-11T05:27:07;7.10;;;1.80;;
41705;SDS011;27385;51.096;17.190;2022-09-11T05:29:38;6.00;;;1.90;;
41705;SDS011;27385;51.096;17.190;2022-09-11T05:32:10;7.00;;;2.10;;
41705;SDS011;27385;51.096;17.190;2022-09-11T05:34:41;6.80;;;2.20;;
41705;SDS011;27385;51.096;17.190;2022-09-11T05:37:12;8.10;;;1.90;;
41705;SDS011;27385;51.096;17.190;2022-09-11T05:39:43;11.10;;;2.20;;
41705;SDS011;27385;51.096;17.190;2022-09-11T05:42:15;7.70;;;2.50;;
41705;SDS011;27385;51.096;17.190;2022-09-11T05:44:48;8.80;;;1.90;;
41705;SDS011;27385;51.096;17.190;2022-09-11T05:47:21;7.40;;;1.90;;
41705;SDS011;27385;51.096;17.190;2022-09-11T05:49:55;8.10;;;2.30;;
41705;SDS011;27385;51.096;17.190;2022-09-11T05:52:28;7.00;;;1.90;;
41705;SDS011;27385;51.096;17.190;2022-09-11T05:55:01;9.40;;;2.30;;
41705;SDS011;27385;51.096;17.190;2022-09-11T05:57:33;9.70;;;2.70;;
41705;SDS011;27385;51.096;17.190;2022-09-11T06:00:06;8.70;;;2.70;;
41705;SDS011;27385;51.096;17.190;2022-09-11T06:02:40;12.10;;;2.40;;
41705;SDS011;27385;51.096;17.190;2022-09-11T06:05:12;13.40;;;3.00;;
41705;SDS011;27385;51.096;17.190;2022-09-11T06:07:43;9.30;;;2.30;;
41705;SDS011;27385;51.096;17.190;2022-09-11T06:10:15;10.50;;;3.20;;
41705;SDS011;27385;51.096;17.190;2022-09-11T06:12:46;10.00;;;3.20;;
41705;SDS011;27385;51.096;17.190;2022-09-11T06:15:17;10.00;;;3.40;;
41705;SDS011;27385;51.096;17.190;2022-09-11T06:17:48;11.70;;;2.80;;
41705;SDS011;27385;51.096;17.190;2022-09-11T06:20:20;11.60;;;3.90;;
41705;SDS011;27385;51.096;17.190;2022-09-11T06:22:51;10.90;;;4.00;;
41705;SDS011;27385;51.096;17.190;2022-09-11T06:25:23;13.20;;;4.20;;
41705;SDS011;27385;51.096;17.190;2022-09-11T06:27:54;16.80;;;5.20;;
41705;SDS011;27385;51.096;17.190;2022-09-11T06:30:27;16.80;;;4.40;;
41705;SDS011;27385;51.096;17.190;2022-09-11T06:32:58;12.50;;;4.40;;
41705;SDS011;27385;51.096;17.190;2022-09-11T06:35:30;14.40;;;4.40;;
41705;SDS011;27385;51.096;17.190;2022-09-11T06:38:01;13.10;;;4.60;;
41705;SDS011;27385;51.096;17.190;2022-09-11T06:40:32;12.80;;;4.20;;
41705;SDS011;27385;51.096;17.190;2022-09-11T06:43:06;14.50;;;5.20;;
41705;SDS011;27385;51.096;17.190;2022-09-11T06:45:38;16.20;;;4.50;;
41705;SDS011;27385;51.096;17.190;2022-09-11T06:48:10;13.50;;;5.00;;
41705;SDS011;27385;51.096;17.190;2022-09-11T06:50:41;11.40;;;4.70;;
41705;SDS011;27385;51.096;17.190;2022-09-11T06:53:13;12.10;;;5.10;;
41705;SDS011;27385;51.096;17.190;2022-09-11T06:55:44;12.80;;;5.60;;
41705;SDS011;27385;51.096;17.190;2022-09-11T06:58:16;17.60;;;5.70;;
41705;SDS011;27385;51.096;17.190;2022-09-11T07:00:47;16.50;;;6.60;;
41705;SDS011;27385;51.096;17.190;2022-09-11T07:03:26;15.00;;;6.40;;
41705;SDS011;27385;51.096;17.190;2022-09-11T07:06:01;13.90;;;4.90;;
41705;SDS011;27385;51.096;17.190;2022-09-11T07:08:37;13.10;;;5.50;;
41705;SDS011;27385;51.096;17.190;2022-09-11T07:11:08;13.20;;;6.00;;
41705;SDS011;27385;51.096;17.190;2022-09-11T07:13:41;14.20;;;6.10;;
41705;SDS011;27385;51.096;17.190;2022-09-11T07:16:12;13.50;;;6.20;;
41705;SDS011;27385;51.096;17.190;2022-09-11T07:18:45;15.30;;;6.50;;
41705;SDS011;27385;51.096;17.190;2022-09-11T07:21:17;11.60;;;4.60;;
41705;SDS011;27385;51.096;17.190;2022-09-11T07:23:51;11.00;;;4.90;;
41705;SDS011;27385;51.096;17.190;2022-09-11T07:26:27;13.40;;;5.60;;
41705;SDS011;27385;51.096;17.190;2022-09-11T07:28:59;16.60;;;5.50;;
41705;SDS011;27385;51.096;17.190;2022-09-11T07:31:32;15.20;;;5.30;;
41705;SDS011;27385;51.096;17.190;2022-09-11T07:34:06;16.00;;;6.20;;
41705;SDS011;27385;51.096;17.190;2022-09-11T07:36:38;16.90;;;6.30;;
41705;SDS011;27385;51.096;17.190;2022-09-11T07:39:10;14.20;;;6.50;;
41705;SDS011;27385;51.096;17.190;2022-09-11T07:41:41;16.20;;;6.70;;
41705;SDS011;27385;51.096;17.190;2022-09-11T07:44:13;16.00;;;7.10;;
41705;SDS011;27385;51.096;17.190;2022-09-11T07:46:45;16.10;;;7.90;;
41705;SDS011;27385;51.096;17.190;2022-09-11T07:49:17;17.20;;;7.70;;
41705;SDS011;27385;51.096;17.190;2022-09-11T07:51:49;19.10;;;7.40;;
41705;SDS011;27385;51.096;17.190;2022-09-11T07:54:21;18.30;;;8.70;;
41705;SDS011;27385;51.096;17.190;2022-09-11T07:56:56;13.80;;;5.80;;
41705;SDS011;27385;51.096;17.190;2022-09-11T07:59:28;16.90;;;7.80;;
41705;SDS011;27385;51.096;17.190;2022-09-11T08:01:59;18.50;;;7.30;;
41705;SDS011;27385;51.096;17.190;2022-09-11T08:04:31;19.80;;;9.10;;
41705;SDS011;27385;51.096;17.190;2022-09-11T08:07:02;15.50;;;7.50;;
41705;SDS011;27385;51.096;17.190;2022-09-11T08:09:34;17.50;;;7.20;;
41705;SDS011;27385;51.096;17.190;2022-09-11T08:12:06;16.40;;;7.90;;
41705;SDS011;27385;51.096;17.190;2022-09-11T08:14:39;14.40;;;6.40;;
41705;SDS011;27385;51.096;17.190;2022-09-11T08:17:10;17.30;;;6.60;;
41705;SDS011;27385;51.096;17.190;2022-09-11T08:19:41;13.50;;;6.00;;
41705;SDS011;27385;51.096;17.190;2022-09-11T08:22:12;14.70;;;6.90;;
41705;SDS011;27385;51.096;17.190;2022-09-11T08:24:44;15.40;;;5.90;;
41705;SDS011;27385;51.096;17.190;2022-09-11T08:27:16;14.40;;;5.90;;
41705;SDS011;27385;51.096;17.190;2022-09-11T08:29:48;16.20;;;5.40;;
41705;SDS011;27385;51.096;17.190;2022-09-11T08:32:21;18.20;;;6.40;;
41705;SDS011;27385;51.096;17.190;2022-09-11T08:34:52;11.40;;;4.70;;
41705;SDS011;27385;51.096;17.190;2022-09-11T08:37:24;11.80;;;4.90;;
41705;SDS011;27385;51.096;17.190;2022-09-11T08:39:55;16.20;;;5.20;;
41705;SDS011;27385;51.096;17.190;2022-09-11T08:42:27;12.40;;;3.60;;
41705;SDS011;27385;51.096;17.190;2022-09-11T08:44:58;10.60;;;3.70;;
41705;SDS011;27385;51.096;17.190;2022-09-11T08:47:34;11.90;;;3.90;;
41705;SDS011;27385;51.096;17.190;2022-09-11T08:50:08;12.30;;;4.20;;
41705;SDS011;27385;51.096;17.190;2022-09-11T08:52:46;9.50;;;3.30;;
41705;SDS011;27385;51.096;17.190;2022-09-11T08:55:20;11.30;;;3.80;;
41705;SDS011;27385;51.096;17.190;2022-09-11T08:58:00;10.90;;;4.10;;
41705;SDS011;27385;51.096;17.190;2022-09-11T09:00:43;10.90;;;4.30;;
41705;SDS011;27385;51.096;17.190;2022-09-11T09:03:26;8.60;;;3.70;;
41705;SDS011;27385;51.096;17.190;2022-09-11T09:06:22;12.90;;;4.40;;
41705;SDS011;27385;51.096;17.190;2022-09-11T09:09:06;10.80;;;3.80;;
41705;SDS011;27385;51.096;17.190;2022-09-11T09:11:49;12.40;;;4.50;;
41705;SDS011;27385;51.096;17.190;2022-09-11T09:14:34;10.10;;;4.70;;
41705;SDS011;27385;51.096;17.190;2022-09-11T09:17:25;13.30;;;5.10;;
41705;SDS011;27385;51.096;17.190;2022-09-11T09:20:04;10.10;;;4.70;;
41705;SDS011;27385;51.096;17.190;2022-09-11T09:22:43;11.50;;;4.70;;
41705;SDS011;27385;51.096;17.190;2022-09-11T09:25:19;12.00;;;4.40;;
41705;SDS011;27385;51.096;17.190;2022-09-11T09:27:56;13.10;;;5.90;;
41705;SDS011;27385;51.096;17.190;2022-09-11T09:30:33;14.10;;;6.30;;
41705;SDS011;27385;51.096;17.190;2022-09-11T09:33:16;15.70;;;6.60;;
41705;SDS011;27385;51.096;17.190;2022-09-11T09:36:01;12.80;;;6.20;;
41705;SDS011;27385;51.096;17.190;2022-09-11T09:38:45;13.30;;;5.70;;
41705;SDS011;27385;51.096;17.190;2022-09-11T09:44:30;14.80;;;6.20;;
41705;SDS011;27385;51.096;17.190;2022-09-11T09:47:13;18.40;;;6.30;;
41705;SDS011;27385;51.096;17.190;2022-09-11T09:49:46;14.10;;;6.40;;
41705;SDS011;27385;51.096;17.190;2022-09-11T09:52:21;13.30;;;6.50;;
41705;SDS011;27385;51.096;17.190;2022-09-11T09:55:03;10.80;;;5.20;;
41705;SDS011;27385;51.096;17.190;2022-09-11T09:57:42;11.70;;;6.00;;
41705;SDS011;27385;51.096;17.190;2022-09-11T10:00:15;12.90;;;6.30;;
41705;SDS011;27385;51.096;17.190;2022-09-11T10:02:50;14.40;;;6.30;;
41705;SDS011;27385;51.096;17.190;2022-09-11T10:05:27;10.80;;;5.20;;
41705;SDS011;27385;51.096;17.190;2022-09-11T10:08:02;10.80;;;5.00;;
41705;SDS011;27385;51.096;17.190;2022-09-11T10:10:36;9.80;;;4.60;;
41705;SDS011;27385;51.096;17.190;2022-09-11T10:13:16;9.40;;;4.10;;
41705;SDS011;27385;51.096;17.190;2022-09-11T10:15:54;11.50;;;4.40;;
41705;SDS011;27385;51.096;17.190;2022-09-11T10:18:33;9.40;;;4.30;;
41705;SDS011;27385;51.096;17.190;2022-09-11T10:21:19;12.50;;;4.60;;
41705;SDS011;27385;51.096;17.190;2022-09-11T10:23:57;9.20;;;4.00;;
41705;SDS011;27385;51.096;17.190;2022-09-11T10:26:31;9.80;;;3.70;;
41705;SDS011;27385;51.096;17.190;2022-09-11T10:29:07;8.30;;;3.30;;
41705;SDS011;27385;51.096;17.190;2022-09-11T10:31:48;7.30;;;2.60;;
41705;SDS011;27385;51.096;17.190;2022-09-11T10:34:23;7.50;;;3.00;;
41705;SDS011;27385;51.096;17.190;2022-09-11T10:36:57;10.30;;;3.90;;
41705;SDS011;27385;51.096;17.190;2022-09-11T10:39:35;11.90;;;3.60;;
41705;SDS011;27385;51.096;17.190;2022-09-11T10:42:10;9.60;;;3.50;;
41705;SDS011;27385;51.096;17.190;2022-09-11T10:44:45;10.60;;;3.60;;
41705;SDS011;27385;51.096;17.190;2022-09-11T10:47:21;10.70;;;3.70;;
41705;SDS011;27385;51.096;17.190;2022-09-11T10:53:11;7.20;;;2.80;;
41705;SDS011;27385;51.096;17.190;2022-09-11T10:55:49;8.80;;;3.00;;
41705;SDS011;27385;51.096;17.190;2022-09-11T10:58:28;9.00;;;2.60;;
41705;SDS011;27385;51.096;17.190;2022-09-11T11:01:04;9.20;;;3.20;;
41705;SDS011;27385;51.096;17.190;2022-09-11T11:03:37;10.90;;;3.80;;
41705;SDS011;27385;51.096;17.190;2022-09-11T11:06:12;11.40;;;3.30;;
41705;SDS011;27385;51.096;17.190;2022-09-11T11:08:58;10.00;;;3.80;;
41705;SDS011;27385;51.096;17.190;2022-09-11T11:11:55;10.70;;;2.90;;
41705;SDS011;27385;51.096;17.190;2022-09-11T11:14:50;8.10;;;2.70;;
41705;SDS011;27385;51.096;17.190;2022-09-11T11:17:36;7.10;;;2.40;;
41705;SDS011;27385;51.096;17.190;2022-09-11T11:20:25;6.70;;;2.10;;
41705;SDS011;27385;51.096;17.190;2022-09-11T11:23:11;6.80;;;2.10;;
41705;SDS011;27385;51.096;17.190;2022-09-11T11:26:02;6.20;;;2.10;;
41705;SDS011;27385;51.096;17.190;2022-09-11T11:28:50;6.60;;;2.10;;
41705;SDS011;27385;51.096;17.190;2022-09-11T11:31:51;6.10;;;2.20;;
41705;SDS011;27385;51.096;17.190;2022-09-11T11:34:39;7.70;;;2.10;;
41705;SDS011;27385;51.096;17.190;2022-09-11T11:37:31;4.30;;;1.50;;
41705;SDS011;27385;51.096;17.190;2022-09-11T11:40:08;5.80;;;1.60;;
41705;SDS011;27385;51.096;17.190;2022-09-11T11:42:48;6.40;;;1.70;;
41705;SDS011;27385;51.096;17.190;2022-09-11T11:45:24;4.00;;;1.40;;
41705;SDS011;27385;51.096;17.190;2022-09-11T11:48:00;7.70;;;1.70;;
41705;SDS011;27385;51.096;17.190;2022-09-11T11:50:41;7.20;;;1.60;;
41705;SDS011;27385;51.096;17.190;2022-09-11T11:53:18;6.30;;;1.90;;
41705;SDS011;27385;51.096;17.190;2022-09-11T11:55:55;5.10;;;1.60;;
41705;SDS011;27385;51.096;17.190;2022-09-11T11:58:37;7.30;;;2.40;;
41705;SDS011;27385;51.096;17.190;2022-09-11T12:01:17;4.90;;;1.50;;
41705;SDS011;27385;51.096;17.190;2022-09-11T12:03:54;5.60;;;1.60;;
41705;SDS011;27385;51.096;17.190;2022-09-11T12:06:30;5.80;;;1.80;;
41705;SDS011;27385;51.096;17.190;2022-09-11T12:09:02;6.70;;;1.80;;
41705;SDS011;27385;51.096;17.190;2022-09-11T12:11:37;6.30;;;1.70;;
41705;SDS011;27385;51.096;17.190;2022-09-11T12:14:13;6.60;;;1.90;;
41705;SDS011;27385;51.096;17.190;2022-09-11T12:16:56;8.50;;;2.50;;
41705;SDS011;27385;51.096;17.190;2022-09-11T12:22:48;8.50;;;2.30;;
41705;SDS011;27385;51.096;17.190;2022-09-11T12:28:27;9.00;;;2.90;;
41705;SDS011;27385;51.096;17.190;2022-09-11T12:31:04;7.70;;;2.60;;
41705;SDS011;27385;51.096;17.190;2022-09-11T12:36:30;10.30;;;3.50;;
41705;SDS011;27385;51.096;17.190;2022-09-11T12:41:52;9.00;;;3.30;;
41705;SDS011;27385;51.096;17.190;2022-09-11T12:44:56;8.00;;;2.90;;
41705;SDS011;27385;51.096;17.190;2022-09-11T12:47:31;8.90;;;2.80;;
41705;SDS011;27385;51.096;17.190;2022-09-11T12:50:12;8.80;;;2.80;;
41705;SDS011;27385;51.096;17.190;2022-09-11T12:52:47;10.40;;;2.50;;
41705;SDS011;27385;51.096;17.190;2022-09-11T12:55:35;8.40;;;2.80;;
41705;SDS011;27385;51.096;17.190;2022-09-11T12:58:21;7.40;;;2.70;;
41705;SDS011;27385;51.096;17.190;2022-09-11T13:01:03;7.80;;;2.80;;
41705;SDS011;27385;51.096;17.190;2022-09-11T13:03:47;8.70;;;2.60;;
41705;SDS011;27385;51.096;17.190;2022-09-11T13:06:34;9.80;;;3.00;;
41705;SDS011;27385;51.096;17.190;2022-09-11T13:09:16;7.80;;;2.30;;
41705;SDS011;27385;51.096;17.190;2022-09-11T13:11:51;6.30;;;2.40;;
41705;SDS011;27385;51.096;17.190;2022-09-11T13:17:20;7.90;;;2.30;;
41705;SDS011;27385;51.096;17.190;2022-09-11T13:20:08;7.60;;;2.40;;
41705;SDS011;27385;51.096;17.190;2022-09-11T13:22:50;5.50;;;1.90;;
41705;SDS011;27385;51.096;17.190;2022-09-11T13:25:21;9.50;;;2.40;;
41705;SDS011;27385;51.096;17.190;2022-09-11T13:27:55;6.10;;;2.10;;
41705;SDS011;27385;51.096;17.190;2022-09-11T13:30:29;6.10;;;2.20;;
41705;SDS011;27385;51.096;17.190;2022-09-11T13:33:04;4.80;;;1.80;;
41705;SDS011;27385;51.096;17.190;2022-09-11T13:35:39;8.20;;;2.10;;
41705;SDS011;27385;51.096;17.190;2022-09-11T13:38:16;7.80;;;1.70;;
41705;SDS011;27385;51.096;17.190;2022-09-11T13:40:53;5.00;;;1.60;;
41705;SDS011;27385;51.096;17.190;2022-09-11T13:43:27;7.90;;;2.00;;
41705;SDS011;27385;51.096;17.190;2022-09-11T13:46:09;8.20;;;1.90;;
41705;SDS011;27385;51.096;17.190;2022-09-11T13:48:48;7.70;;;1.70;;
41705;SDS011;27385;51.096;17.190;2022-09-11T13:51:26;5.40;;;1.70;;
41705;SDS011;27385;51.096;17.190;2022-09-11T13:54:02;5.60;;;1.70;;
41705;SDS011;27385;51.096;17.190;2022-09-11T13:59:35;5.50;;;1.60;;
41705;SDS011;27385;51.096;17.190;2022-09-11T14:02:16;5.60;;;1.60;;
41705;SDS011;27385;51.096;17.190;2022-09-11T14:04:56;6.50;;;1.70;;
41705;SDS011;27385;51.096;17.190;2022-09-11T14:07:41;7.80;;;1.70;;
41705;SDS011;27385;51.096;17.190;2022-09-11T14:10:20;5.80;;;1.40;;
41705;SDS011;27385;51.096;17.190;2022-09-11T14:12:59;6.10;;;1.70;;
41705;SDS011;27385;51.096;17.190;2022-09-11T14:15:39;5.70;;;1.50;;
41705;SDS011;27385;51.096;17.190;2022-09-11T14:18:15;5.50;;;1.40;;
41705;SDS011;27385;51.096;17.190;2022-09-11T14:20:54;7.50;;;1.50;;
41705;SDS011;27385;51.096;17.190;2022-09-11T14:23:28;10.10;;;1.40;;
41705;SDS011;27385;51.096;17.190;2022-09-11T14:26:04;6.40;;;1.60;;
41705;SDS011;27385;51.096;17.190;2022-09-11T14:28:41;8.80;;;1.90;;
41705;SDS011;27385;51.096;17.190;2022-09-11T14:31:25;7.30;;;1.80;;
41705;SDS011;27385;51.096;17.190;2022-09-11T14:34:12;5.60;;;1.90;;
41705;SDS011;27385;51.096;17.190;2022-09-11T14:36:48;5.00;;;1.60;;
41705;SDS011;27385;51.096;17.190;2022-09-11T14:39:24;6.00;;;1.60;;
41705;SDS011;27385;51.096;17.190;2022-09-11T14:41:59;5.70;;;1.60;;
41705;SDS011;27385;51.096;17.190;2022-09-11T14:44:33;8.70;;;2.00;;
41705;SDS011;27385;51.096;17.190;2022-09-11T14:47:09;6.80;;;1.70;;
41705;SDS011;27385;51.096;17.190;2022-09-11T14:49:44;5.20;;;1.30;;
41705;SDS011;27385;51.096;17.190;2022-09-11T14:52:21;6.90;;;1.60;;
41705;SDS011;27385;51.096;17.190;2022-09-11T14:54:55;6.60;;;1.70;;
41705;SDS011;27385;51.096;17.190;2022-09-11T14:57:30;5.60;;;1.50;;
41705;SDS011;27385;51.096;17.190;2022-09-11T15:00:03;7.10;;;1.60;;
41705;SDS011;27385;51.096;17.190;2022-09-11T15:02:37;5.50;;;1.50;;
41705;SDS011;27385;51.096;17.190;2022-09-11T15:05:11;4.40;;;1.50;;
41705;SDS011;27385;51.096;17.190;2022-09-11T15:07:45;6.70;;;1.70;;
41705;SDS011;27385;51.096;17.190;2022-09-11T15:10:17;6.20;;;1.80;;
41705;SDS011;27385;51.096;17.190;2022-09-11T15:12:50;5.20;;;1.30;;
41705;SDS011;27385;51.096;17.190;2022-09-11T15:15:23;5.90;;;1.50;;
41705;SDS011;27385;51.096;17.190;2022-09-11T15:17:55;5.50;;;1.60;;
41705;SDS011;27385;51.096;17.190;2022-09-11T15:20:27;6.40;;;1.50;;
41705;SDS011;27385;51.096;17.190;2022-09-11T15:23:00;5.70;;;1.50;;
41705;SDS011;27385;51.096;17.190;2022-09-11T15:25:31;7.00;;;1.60;;
41705;SDS011;27385;51.096;17.190;2022-09-11T15:28:04;5.80;;;1.60;;
41705;SDS011;27385;51.096;17.190;2022-09-11T15:30:37;5.50;;;1.80;;
41705;SDS011;27385;51.096;17.190;2022-09-11T15:33:10;6.40;;;1.60;;
41705;SDS011;27385;51.096;17.190;2022-09-11T15:35:42;5.80;;;1.50;;
41705;SDS011;27385;51.096;17.190;2022-09-11T15:38:14;6.80;;;1.60;;
41705;SDS011;27385;51.096;17.190;2022-09-11T15:40:51;4.80;;;1.30;;
41705;SDS011;27385;51.096;17.190;2022-09-11T15:43:24;4.60;;;1.30;;